Terminal Aerodrome Forecast
Issued by NWS

Home | Current Version | Previous Version | Graphics & Text | Print | Product List | Glossary On
Versions: 1 2 3 4 5 6 7 8 9 10 11 12 13 14
000
FTUS43 KMPX 232320
TAFRWF
TAF
KRWF 232320Z 2400/2424 31014G22KT P6SM FEW040 BKN050
     FM240200 28008KT P6SM SCT070
     FM241600 29015G23KT P6SM BKN050=

USA.gov is the U.S. government's official web portal to all federal, state and local government web resources and services.